createdAt,value
2022-12-06T00:03:17.047Z,4.85
2022-12-06T00:08:20.898Z,4.82
2022-12-06T00:13:26.181Z,4.65
2022-12-06T00:18:30.938Z,4.85
2022-12-06T00:23:36.918Z,4.93
2022-12-06T00:28:42.771Z,4.93
2022-12-06T00:33:46.834Z,5.25
2022-12-06T00:38:51.282Z,5.30
2022-12-06T00:43:56.653Z,5.38
2022-12-06T00:49:02.378Z,5.10
2022-12-06T00:54:06.795Z,4.50
2022-12-06T00:59:12.622Z,4.68
2022-12-06T01:04:16.464Z,5.40
2022-12-06T01:09:20.284Z,4.78
2022-12-06T01:14:25.283Z,5.25
2022-12-06T01:19:28.794Z,5.28
2022-12-06T01:24:32.317Z,5.90
2022-12-06T01:29:37.519Z,5.90
2022-12-06T01:34:41.162Z,6.07
2022-12-06T01:39:45.121Z,5.45
2022-12-06T01:44:51.529Z,5.85
2022-12-06T01:50:00.048Z,5.60
2022-12-06T01:55:07.705Z,5.82
2022-12-06T02:00:13.510Z,5.57
2022-12-06T02:05:18.413Z,6.18
2022-12-06T02:10:22.005Z,6.00
2022-12-06T02:15:40.946Z,5.57
2022-12-06T02:20:52.189Z,6.50
2022-12-06T02:31:38.266Z,6.05
2022-12-06T02:36:50.427Z,6.15
2022-12-06T02:41:59.772Z,6.53
2022-12-06T02:47:06.783Z,5.95
2022-12-06T02:52:10.309Z,6.07
2022-12-06T02:57:13.798Z,6.57
2022-12-06T03:02:19.094Z,6.65
2022-12-06T03:07:33.331Z,6.30
2022-12-06T03:12:41.300Z,7.70
2022-12-06T03:17:51.504Z,7.00
2022-12-06T03:23:02.362Z,7.57
2022-12-06T03:28:08.037Z,6.68
2022-12-06T03:33:15.135Z,6.53
2022-12-06T03:38:23.085Z,6.22
2022-12-06T03:43:26.601Z,6.45
2022-12-06T03:48:36.024Z,7.55
2022-12-06T03:53:47.988Z,6.60
2022-12-06T03:58:51.501Z,6.93
2022-12-06T04:03:56.392Z,7.03
2022-12-06T04:09:19.910Z,6.57
2022-12-06T04:14:23.382Z,6.30
2022-12-06T04:19:28.324Z,6.38
2022-12-06T04:24:31.995Z,6.63
2022-12-06T04:29:53.185Z,6.15
2022-12-06T04:40:18.966Z,7.65
2022-12-06T04:45:22.460Z,6.78
2022-12-06T04:50:27.336Z,6.18
2022-12-06T04:55:30.804Z,6.65
2022-12-06T05:00:34.300Z,6.53
2022-12-06T05:05:39.350Z,6.75
2022-12-06T05:10:42.849Z,6.07
2022-12-06T05:15:51.390Z,5.82
2022-12-06T05:21:04.563Z,5.88
2022-12-06T05:26:11.962Z,5.82
2022-12-06T05:31:16.259Z,5.57
2022-12-06T05:36:23.098Z,6.18
2022-12-06T05:41:26.685Z,5.95
2022-12-06T05:46:30.278Z,6.05
2022-12-06T05:51:35.118Z,5.07
2022-12-06T05:56:39.892Z,5.13
2022-12-06T06:01:43.688Z,5.65
2022-12-06T06:06:48.572Z,5.72
2022-12-06T06:11:52.084Z,6.15
2022-12-06T06:16:55.517Z,5.53
2022-12-06T06:22:00.575Z,5.43
2022-12-06T06:27:04.515Z,5.82
2022-12-06T06:32:08.118Z,6.00
2022-12-06T06:37:12.969Z,5.43
2022-12-06T06:42:17.591Z,5.60
2022-12-06T06:47:21.155Z,5.72
2022-12-06T06:52:26.054Z,6.20
2022-12-06T06:57:29.751Z,5.35
2022-12-06T07:02:33.281Z,5.60
2022-12-06T07:07:38.172Z,5.70
2022-12-06T07:12:41.657Z,5.88
2022-12-06T07:17:45.138Z,5.22
2022-12-06T07:22:49.929Z,5.20
2022-12-06T07:27:53.475Z,5.78
2022-12-06T07:32:56.994Z,5.50
2022-12-06T07:38:02.685Z,5.18
2022-12-06T07:43:23.505Z,4.90
2022-12-06T07:48:27.552Z,4.57
2022-12-06T07:53:32.467Z,4.40
2022-12-06T07:58:36.059Z,5.38
2022-12-06T08:03:39.580Z,5.22
2022-12-06T08:08:44.590Z,4.32
2022-12-06T08:13:48.045Z,3.75
2022-12-06T08:18:52.628Z,4.32
2022-12-06T08:23:57.626Z,3.83
2022-12-06T08:29:02.337Z,4.30
2022-12-06T08:34:06.131Z,3.53
2022-12-06T08:39:12.406Z,3.90
2022-12-06T08:44:17.227Z,17.75
2022-12-06T09:59:21.532Z,3.33
2022-12-06T10:04:47.679Z,2.75
2022-12-06T10:10:03.682Z,2.58
2022-12-06T10:15:32.302Z,2.78
2022-12-06T10:20:43.931Z,3.13
2022-12-06T10:25:56.158Z,2.33
2022-12-06T10:31:09.247Z,2.30
2022-12-06T10:36:20.657Z,1.92
2022-12-06T10:41:29.739Z,2.40
2022-12-06T10:47:01.087Z,2.15
2022-12-06T10:52:18.786Z,2.10
2022-12-06T10:57:30.066Z,2.10
2022-12-06T11:02:41.561Z,2.03
2022-12-06T11:07:49.902Z,1.92
2022-12-06T11:12:59.480Z,2.33
2022-12-06T11:18:11.665Z,2.03
2022-12-06T11:23:23.713Z,2.30
2022-12-06T11:28:38.830Z,2.40
2022-12-06T11:33:43.940Z,2.47
2022-12-06T11:38:48.330Z,14.23
2022-12-06T11:43:53.564Z,2.42
2022-12-06T11:49:05.773Z,2.45
2022-12-06T11:54:23.725Z,2.53
2022-12-06T11:59:29.937Z,2.67
2022-12-06T12:04:39.014Z,2.40
2022-12-06T12:09:55.057Z,2.60
2022-12-06T12:15:00.336Z,2.20
2022-12-06T12:20:09.808Z,1.83
2022-12-06T12:25:26.472Z,2.15
2022-12-06T12:30:36.403Z,2.08
2022-12-06T12:35:43.189Z,2.75
2022-12-06T12:40:50.608Z,2.65
2022-12-06T12:46:07.699Z,2.55
2022-12-06T12:51:24.477Z,2.70
2022-12-06T12:56:30.690Z,2.50
2022-12-06T13:01:39.956Z,2.90
2022-12-06T13:06:50.439Z,2.50
2022-12-06T13:12:00.155Z,2.27
2022-12-06T13:17:08.099Z,2.05
2022-12-06T13:22:20.194Z,2.63
2022-12-06T13:27:25.129Z,2.90
2022-12-06T13:32:34.282Z,3.00
2022-12-06T13:37:45.597Z,3.72
2022-12-06T13:42:49.164Z,3.60
2022-12-06T13:47:52.986Z,3.22
2022-12-06T13:53:04.237Z,3.55
2022-12-06T14:03:41.152Z,2.50
2022-12-06T14:08:48.186Z,2.83
2022-12-06T14:14:02.504Z,2.88
2022-12-06T14:19:16.707Z,2.80
2022-12-06T14:24:31.743Z,2.67
2022-12-06T14:29:35.605Z,3.10
2022-12-06T14:34:39.410Z,3.60
2022-12-06T14:39:52.391Z,3.00
2022-12-06T14:45:01.933Z,2.70
2022-12-06T14:50:25.420Z,2.83
2022-12-06T14:55:32.697Z,3.08
2022-12-06T15:00:39.439Z,2.72
2022-12-06T15:05:44.848Z,12.80
2022-12-06T15:10:57.971Z,3.75
2022-12-06T15:16:06.276Z,2.83
2022-12-06T15:21:14.181Z,2.97
2022-12-06T15:26:20.491Z,3.72
2022-12-06T15:31:27.001Z,3.28
2022-12-06T15:36:33.302Z,3.03
2022-12-06T15:41:39.204Z,3.20
2022-12-06T15:46:43.405Z,3.90
2022-12-06T15:51:47.479Z,3.35
2022-12-06T15:56:53.274Z,3.55
2022-12-06T16:01:56.866Z,3.70
2022-12-06T16:07:00.586Z,3.60
2022-12-06T16:12:06.051Z,4.38
2022-12-06T16:17:09.931Z,4.63
2022-12-06T16:22:13.392Z,3.75
2022-12-06T16:27:19.557Z,3.80
2022-12-06T16:32:23.087Z,4.50
2022-12-06T16:37:26.606Z,4.53
2022-12-06T16:42:31.665Z,4.55
2022-12-06T16:47:35.162Z,4.70
2022-12-06T16:52:38.701Z,5.03
2022-12-06T16:57:43.857Z,5.13
2022-12-06T17:02:48.429Z,4.97
2022-12-06T17:07:52.550Z,5.43
2022-12-06T17:12:57.998Z,5.15
2022-12-06T17:18:01.608Z,5.10
2022-12-06T17:23:05.136Z,16.80
2022-12-06T17:28:10.212Z,6.15
2022-12-06T17:33:13.730Z,6.05
2022-12-06T17:38:17.410Z,5.03
2022-12-06T17:43:22.472Z,4.88
2022-12-06T17:48:28.659Z,5.13
2022-12-06T17:53:35.549Z,4.85
2022-12-06T17:58:40.552Z,6.40
2022-12-06T18:03:44.116Z,6.15
2022-12-06T18:08:48.477Z,5.78
2022-12-06T18:13:55.051Z,5.78
2022-12-06T18:19:02.663Z,6.18
2022-12-06T18:24:31.957Z,5.90
2022-12-06T18:29:36.930Z,5.28
2022-12-06T18:34:40.457Z,5.45
2022-12-06T18:39:44.009Z,5.25
2022-12-06T18:44:51.454Z,5.55
2022-12-06T18:49:58.637Z,5.65
2022-12-06T18:55:02.639Z,6.10
2022-12-06T19:00:09.434Z,5.93
2022-12-06T19:05:12.913Z,6.57
2022-12-06T19:10:16.517Z,8.98
2022-12-06T19:15:21.476Z,8.23
2022-12-06T19:20:25.231Z,7.07
2022-12-06T19:25:28.742Z,7.38
2022-12-06T19:30:33.721Z,8.07
2022-12-06T19:35:37.367Z,7.25
2022-12-06T19:40:42.144Z,7.57
2022-12-06T19:45:47.094Z,7.13
2022-12-06T19:50:50.554Z,7.97
2022-12-06T19:55:54.085Z,8.18
2022-12-06T20:00:59.370Z,8.25
2022-12-06T20:06:04.131Z,7.85
2022-12-06T20:11:29.792Z,8.55
2022-12-06T20:16:36.887Z,9.32
2022-12-06T20:21:40.490Z,8.35
2022-12-06T20:26:44.153Z,8.90
2022-12-06T20:31:50.011Z,8.65
2022-12-06T20:36:53.514Z,9.15
2022-12-06T20:41:57.116Z,10.18
2022-12-06T20:47:02.249Z,10.27
2022-12-06T20:52:06.879Z,9.80
2022-12-06T20:57:11.744Z,10.50
2022-12-06T21:02:16.687Z,10.55
2022-12-06T21:07:21.477Z,10.85
2022-12-06T21:12:25.078Z,11.80
2022-12-06T21:17:33.032Z,16.08
2022-12-06T21:22:36.674Z,13.85
2022-12-06T21:27:40.236Z,14.48
2022-12-06T21:32:45.142Z,13.40
2022-12-06T21:37:48.699Z,12.95
2022-12-06T21:42:52.175Z,12.50
2022-12-06T21:47:57.312Z,12.43
2022-12-06T21:53:00.898Z,13.70
2022-12-06T21:58:04.517Z,11.65
2022-12-06T22:03:09.557Z,13.80
2022-12-06T22:08:13.733Z,12.80
2022-12-06T22:13:17.292Z,12.27
2022-12-06T22:18:22.197Z,13.18
2022-12-06T22:23:25.734Z,12.55
2022-12-06T22:28:29.261Z,11.80
2022-12-06T22:33:34.899Z,12.35
2022-12-06T22:38:38.491Z,14.90
2022-12-06T22:43:41.910Z,12.60
2022-12-06T22:48:47.124Z,11.80
2022-12-06T22:53:56.031Z,11.55
2022-12-06T22:59:00.982Z,11.40
2022-12-06T23:04:07.619Z,12.63
2022-12-06T23:09:15.750Z,11.85
2022-12-06T23:14:19.266Z,11.35
2022-12-06T23:19:24.250Z,11.50
2022-12-06T23:24:27.889Z,11.15
2022-12-06T23:29:31.523Z,11.15
2022-12-06T23:34:36.386Z,11.15
2022-12-06T23:39:39.850Z,11.13
2022-12-06T23:44:43.391Z,11.40
2022-12-06T23:49:48.160Z,10.10
2022-12-06T23:54:51.625Z,11.70
2022-12-06T23:59:55.161Z,11.25
